createdAt,value
2022-08-03T00:02:25.514Z,13.50
2022-08-03T00:04:57.357Z,8.70
2022-08-03T00:07:28.783Z,9.40
2022-08-03T00:10:00.543Z,9.60
2022-08-03T00:12:32.068Z,8.70
2022-08-03T00:15:03.488Z,8.40
2022-08-03T00:17:52.650Z,7.40
2022-08-03T00:20:25.671Z,9.70
2022-08-03T00:22:57.440Z,9.00
2022-08-03T00:25:30.020Z,10.20
2022-08-03T00:28:01.740Z,10.60
2022-08-03T00:30:33.483Z,10.60
2022-08-03T00:33:05.392Z,11.70
2022-08-03T00:35:50.461Z,10.20
2022-08-03T00:38:22.993Z,12.20
2022-08-03T00:40:54.536Z,10.40
2022-08-03T00:43:28.481Z,11.50
2022-08-03T00:45:59.803Z,9.50
2022-08-03T00:48:33.707Z,9.60
2022-08-03T00:51:06.289Z,10.60
2022-08-03T00:53:38.662Z,8.20
2022-08-03T00:56:11.183Z,10.80
2022-08-03T00:58:43.318Z,10.20
2022-08-03T01:01:15.657Z,10.60
2022-08-03T01:03:47.821Z,8.60
2022-08-03T01:06:33.935Z,10.60
2022-08-03T01:09:11.278Z,7.80
2022-08-03T01:12:00.910Z,12.10
2022-08-03T01:14:40.339Z,7.10
2022-08-03T01:17:18.490Z,8.50
2022-08-03T01:20:01.876Z,7.90
2022-08-03T01:22:52.726Z,8.10
2022-08-03T01:25:36.750Z,8.70
2022-08-03T01:28:36.074Z,8.60
2022-08-03T01:31:14.164Z,12.10
2022-08-03T01:33:51.419Z,11.00
2022-08-03T01:36:31.970Z,8.40
2022-08-03T01:39:09.825Z,8.30
2022-08-03T01:41:50.696Z,9.10
2022-08-03T01:44:30.182Z,11.60
2022-08-03T01:47:07.897Z,10.10
2022-08-03T01:49:46.131Z,11.00
2022-08-03T01:52:22.952Z,11.70
2022-08-03T01:54:57.758Z,10.00
2022-08-03T01:57:33.105Z,10.90
2022-08-03T02:00:28.387Z,10.70
2022-08-03T02:03:04.492Z,11.90
2022-08-03T02:05:41.459Z,8.90
2022-08-03T02:08:20.081Z,10.60
2022-08-03T02:10:54.414Z,9.00
2022-08-03T02:13:30.759Z,10.50
2022-08-03T02:16:07.730Z,11.40
2022-08-03T02:18:42.604Z,9.00
2022-08-03T02:21:55.785Z,8.00
2022-08-03T02:24:11.552Z,10.80
2022-08-03T02:26:46.534Z,8.80
2022-08-03T02:29:38.822Z,8.80
2022-08-03T02:32:19.789Z,11.10
2022-08-03T02:34:56.547Z,10.10
2022-08-03T02:37:33.825Z,9.60
2022-08-03T02:40:10.243Z,10.00
2022-08-03T02:42:46.161Z,8.10
2022-08-03T02:45:22.663Z,12.00
2022-08-03T02:48:02.444Z,12.60
2022-08-03T02:50:37.190Z,8.40
2022-08-03T02:53:12.889Z,8.80
2022-08-03T02:55:48.816Z,9.40
2022-08-03T02:58:25.931Z,10.50
2022-08-03T03:01:00.609Z,9.80
2022-08-03T03:03:44.639Z,11.40
2022-08-03T03:06:19.500Z,9.00
2022-08-03T03:08:59.451Z,10.50
2022-08-03T03:11:32.365Z,9.40
2022-08-03T03:14:04.374Z,8.20
2022-08-03T03:16:41.685Z,9.60
2022-08-03T03:19:15.811Z,8.80
2022-08-03T03:21:47.981Z,11.70
2022-08-03T03:24:19.790Z,9.00
2022-08-03T03:26:51.865Z,8.00
2022-08-03T03:29:23.616Z,9.40
2022-08-03T03:31:55.787Z,11.80
2022-08-03T03:34:32.322Z,10.00
2022-08-03T03:37:09.265Z,8.00
2022-08-03T03:39:44.955Z,8.40
2022-08-03T03:42:16.733Z,8.40
2022-08-03T03:44:48.825Z,8.30
2022-08-03T03:47:32.703Z,14.10
2022-08-03T03:50:07.134Z,10.90
2022-08-03T03:52:39.433Z,8.10
2022-08-03T03:55:11.886Z,9.30
2022-08-03T03:57:43.437Z,10.50
2022-08-03T04:00:18.222Z,8.60
2022-08-03T04:02:50.264Z,8.60
2022-08-03T04:05:42.996Z,10.00
2022-08-03T04:08:36.388Z,10.50
2022-08-03T04:11:13.188Z,9.40
2022-08-03T04:13:51.252Z,10.40
2022-08-03T04:16:26.785Z,9.80
2022-08-03T04:19:03.315Z,9.40
2022-08-03T04:21:39.725Z,13.20
2022-08-03T04:24:15.228Z,8.70
2022-08-03T04:26:52.921Z,10.20
2022-08-03T04:29:27.591Z,9.10
2022-08-03T04:32:01.631Z,8.50
2022-08-03T04:34:35.234Z,13.90
2022-08-03T04:37:12.579Z,8.40
2022-08-03T04:39:46.177Z,11.30
2022-08-03T04:42:19.327Z,11.30
2022-08-03T04:44:52.283Z,12.80
2022-08-03T04:47:24.593Z,13.10
2022-08-03T04:49:56.959Z,11.20
2022-08-03T04:52:29.126Z,13.70
2022-08-03T04:55:00.770Z,10.80
2022-08-03T04:57:32.167Z,12.70
2022-08-03T05:00:03.870Z,13.50
2022-08-03T05:02:35.511Z,10.50
2022-08-03T05:05:07.611Z,10.00
2022-08-03T05:07:39.447Z,10.00
2022-08-03T05:10:15.759Z,9.40
2022-08-03T05:12:49.295Z,8.80
2022-08-03T05:15:20.973Z,9.10
2022-08-03T05:17:52.847Z,10.20
2022-08-03T05:20:24.394Z,13.00
2022-08-03T05:22:55.830Z,9.00
2022-08-03T05:25:27.655Z,6.50
2022-08-03T05:27:59.079Z,7.70
2022-08-03T05:30:33.828Z,7.90
2022-08-03T05:33:06.859Z,6.40
2022-08-03T05:36:00.819Z,6.20
2022-08-03T05:38:34.721Z,6.80
2022-08-03T05:41:22.294Z,8.10
2022-08-03T05:43:56.856Z,6.90
2022-08-03T05:46:28.577Z,7.40
2022-08-03T05:49:00.573Z,7.50
2022-08-03T05:51:32.007Z,10.70
2022-08-03T05:54:04.142Z,7.50
2022-08-03T05:56:35.628Z,6.30
2022-08-03T05:59:28.687Z,7.60
2022-08-03T06:01:58.759Z,6.90
2022-08-03T06:04:30.530Z,8.90
2022-08-03T06:07:02.138Z,8.20
2022-08-03T06:10:34.171Z,7.40
2022-08-03T06:12:25.662Z,7.60
2022-08-03T06:14:57.123Z,5.80
2022-08-03T06:17:28.787Z,7.60
2022-08-03T06:20:10.811Z,5.30
2022-08-03T06:22:50.801Z,4.70
2022-08-03T06:25:23.971Z,5.40
2022-08-03T06:27:55.688Z,9.10
2022-08-03T06:30:27.514Z,6.40
2022-08-03T06:32:59.334Z,7.60
2022-08-03T06:35:30.958Z,10.50
2022-08-03T06:38:03.097Z,7.80
2022-08-03T06:40:40.301Z,8.10
2022-08-03T06:43:12.845Z,8.60
2022-08-03T06:45:48.171Z,5.90
2022-08-03T06:48:20.090Z,11.30
2022-08-03T06:50:51.616Z,8.40
2022-08-03T06:53:23.358Z,11.20
2022-08-03T06:55:55.485Z,8.30
2022-08-03T06:58:27.268Z,5.80
2022-08-03T07:00:59.426Z,4.60
2022-08-03T07:03:30.912Z,4.70
2022-08-03T07:06:02.431Z,5.60
2022-08-03T07:08:34.991Z,4.00
2022-08-03T07:11:06.521Z,6.30
2022-08-03T07:13:38.491Z,6.20
2022-08-03T07:16:11.263Z,4.50
2022-08-03T07:18:43.439Z,5.10
2022-08-03T07:21:17.021Z,4.90
2022-08-03T07:23:48.563Z,3.70
2022-08-03T07:26:20.135Z,4.20
2022-08-03T07:28:52.119Z,5.50
2022-08-03T07:31:23.756Z,4.40
2022-08-03T07:33:55.342Z,4.00
2022-08-03T07:36:27.326Z,4.90
2022-08-03T07:38:59.707Z,6.40
2022-08-03T07:41:32.228Z,3.90
2022-08-03T07:44:03.727Z,5.00
2022-08-03T07:46:35.292Z,3.70
2022-08-03T07:49:07.223Z,4.40
2022-08-03T07:51:39.101Z,5.00
2022-08-03T07:54:11.651Z,5.80
2022-08-03T07:56:44.136Z,4.20
2022-08-03T07:59:15.607Z,6.20
2022-08-03T08:01:47.802Z,7.10
2022-08-03T08:04:19.277Z,4.30
2022-08-03T08:06:50.761Z,5.00
2022-08-03T08:09:22.310Z,4.60
2022-08-03T08:11:54.765Z,5.20
2022-08-03T08:14:26.591Z,4.70
2022-08-03T08:16:58.352Z,8.10
2022-08-03T08:19:30.168Z,4.00
2022-08-03T08:22:05.038Z,7.80
2022-08-03T08:24:37.376Z,8.90
2022-08-03T08:27:12.298Z,10.20
2022-08-03T08:29:47.941Z,7.80
2022-08-03T08:32:27.062Z,8.40
2022-08-03T08:34:58.695Z,8.70
2022-08-03T08:37:30.290Z,6.40
2022-08-03T08:40:02.020Z,7.00
2022-08-03T08:42:34.570Z,5.30
2022-08-03T08:45:09.200Z,7.00
2022-08-03T08:47:51.034Z,7.50
2022-08-03T08:50:27.890Z,6.30
2022-08-03T08:53:02.061Z,7.60
2022-08-03T08:55:58.624Z,4.90
2022-08-03T08:58:30.421Z,4.60
2022-08-03T09:03:34.484Z,6.60
2022-08-03T09:06:07.084Z,6.10
2022-08-03T09:08:38.551Z,3.10
2022-08-03T09:11:12.049Z,5.60
2022-08-03T09:13:44.511Z,4.80
2022-08-03T09:16:21.323Z,4.10
2022-08-03T09:18:54.768Z,4.40
2022-08-03T09:21:32.524Z,2.50
2022-08-03T09:24:13.111Z,3.20
2022-08-03T09:26:54.541Z,3.60
2022-08-03T09:29:26.823Z,3.00
2022-08-03T09:32:04.376Z,3.80
2022-08-03T09:34:36.113Z,4.50
2022-08-03T09:37:17.643Z,3.30
2022-08-03T09:39:50.036Z,3.00
2022-08-03T09:42:23.776Z,3.00
2022-08-03T09:44:55.742Z,2.80
2022-08-03T09:47:34.051Z,3.10
2022-08-03T09:50:07.399Z,2.80
2022-08-03T09:52:51.881Z,4.40
2022-08-03T09:56:34.219Z,5.00
2022-08-03T09:58:16.958Z,3.50
2022-08-03T10:00:59.459Z,2.90
2022-08-03T10:03:32.792Z,3.60
2022-08-03T10:06:19.725Z,4.10
2022-08-03T10:09:06.035Z,4.20
2022-08-03T10:11:41.850Z,3.20
2022-08-03T10:14:19.697Z,4.00
2022-08-03T10:16:51.816Z,3.50
2022-08-03T10:19:23.420Z,6.60
2022-08-03T10:21:59.596Z,5.70
2022-08-03T10:24:36.033Z,3.60
2022-08-03T10:27:08.898Z,4.50
2022-08-03T10:29:47.869Z,3.20
2022-08-03T10:32:23.651Z,3.10
2022-08-03T10:34:59.889Z,3.10
2022-08-03T10:37:34.333Z,3.50
2022-08-03T10:40:08.601Z,5.50
2022-08-03T10:42:40.614Z,3.10
2022-08-03T10:45:20.161Z,3.80
2022-08-03T10:47:53.070Z,3.40
2022-08-03T10:50:27.441Z,3.00
2022-08-03T10:53:04.041Z,2.90
2022-08-03T10:55:55.405Z,3.60
2022-08-03T10:58:57.521Z,4.10
2022-08-03T11:02:00.173Z,3.40
2022-08-03T11:04:33.083Z,2.90
2022-08-03T11:07:25.622Z,3.80
2022-08-03T11:09:58.631Z,4.20
2022-08-03T11:12:32.513Z,3.20
2022-08-03T11:15:08.966Z,3.30
2022-08-03T11:17:46.204Z,3.80
2022-08-03T11:20:47.753Z,3.30
2022-08-03T11:24:03.469Z,3.80
2022-08-03T11:26:19.857Z,3.70
2022-08-03T11:28:51.888Z,4.40
2022-08-03T11:31:51.645Z,4.10
2022-08-03T11:34:24.951Z,4.50
2022-08-03T11:37:32.870Z,4.40
2022-08-03T11:40:05.619Z,6.90
2022-08-03T11:42:47.618Z,3.90
2022-08-03T11:45:20.162Z,4.20
2022-08-03T11:47:54.666Z,3.30
2022-08-03T11:50:27.048Z,4.50
2022-08-03T11:52:58.832Z,4.00
2022-08-03T11:55:32.533Z,4.90
2022-08-03T11:59:00.814Z,4.60
2022-08-03T12:01:04.928Z,3.10
2022-08-03T12:03:38.296Z,4.00
2022-08-03T12:06:13.506Z,3.80
2022-08-03T12:08:46.225Z,3.00
2022-08-03T12:11:19.246Z,4.00
2022-08-03T12:14:36.756Z,5.60
2022-08-03T12:16:48.620Z,3.20
2022-08-03T12:19:21.327Z,5.50
2022-08-03T12:21:57.109Z,4.30
2022-08-03T12:24:41.451Z,4.10
2022-08-03T12:27:13.685Z,6.80
2022-08-03T12:29:58.774Z,4.30
2022-08-03T12:32:31.748Z,4.40
2022-08-03T12:35:06.260Z,3.70
2022-08-03T12:37:38.411Z,3.70
2022-08-03T12:40:17.764Z,6.20
2022-08-03T12:42:51.857Z,3.70
2022-08-03T12:45:25.302Z,4.60
2022-08-03T12:47:59.785Z,3.90
2022-08-03T12:50:33.839Z,3.20
2022-08-03T12:55:57.285Z,3.60
2022-08-03T12:58:37.023Z,5.20
2022-08-03T13:01:10.810Z,5.00
2022-08-03T13:03:50.394Z,3.90
2022-08-03T13:06:25.950Z,5.20
2022-08-03T13:09:08.259Z,4.10
2022-08-03T13:11:55.602Z,4.10
2022-08-03T13:14:31.879Z,4.30
2022-08-03T13:17:04.207Z,5.10
2022-08-03T13:19:36.886Z,4.00
2022-08-03T13:22:16.381Z,3.90
2022-08-03T13:24:49.900Z,6.30
2022-08-03T13:28:01.464Z,3.90
2022-08-03T13:30:14.505Z,4.30
2022-08-03T13:32:56.683Z,5.30
2022-08-03T13:35:31.173Z,4.10
2022-08-03T13:38:02.815Z,4.60
2022-08-03T13:40:41.661Z,4.70
2022-08-03T13:43:13.903Z,3.90
2022-08-03T13:45:51.265Z,4.30
2022-08-03T13:48:37.657Z,4.20
2022-08-03T13:53:54.389Z,11.10
2022-08-03T13:56:26.246Z,4.10
2022-08-03T13:58:58.244Z,4.10
2022-08-03T14:01:53.612Z,4.10
2022-08-03T14:04:22.536Z,5.30
2022-08-03T14:06:54.255Z,4.10
2022-08-03T14:09:25.931Z,4.10
2022-08-03T14:12:07.603Z,4.80
2022-08-03T14:14:40.283Z,4.20
2022-08-03T14:17:12.138Z,4.00
2022-08-03T14:19:52.673Z,4.10
2022-08-03T14:22:25.355Z,3.90
2022-08-03T14:24:56.902Z,4.60
2022-08-03T14:27:29.227Z,5.10
2022-08-03T14:30:01.835Z,4.60
2022-08-03T14:32:33.952Z,6.20
2022-08-03T14:35:05.782Z,4.40
2022-08-03T14:37:37.656Z,5.30
2022-08-03T14:40:11.859Z,4.40
2022-08-03T14:42:43.329Z,5.30
2022-08-03T14:45:19.825Z,7.00
2022-08-03T14:50:30.562Z,4.90
2022-08-03T14:50:50.292Z,5.00
2022-08-03T14:53:25.765Z,5.20
2022-08-03T14:55:57.649Z,6.10
2022-08-03T14:58:29.272Z,5.80
2022-08-03T15:01:00.865Z,6.50
2022-08-03T15:03:32.391Z,4.50
2022-08-03T15:06:03.961Z,6.60
2022-08-03T15:08:35.628Z,5.40
2022-08-03T15:11:07.317Z,4.50
2022-08-03T15:13:39.318Z,5.00
2022-08-03T15:16:11.262Z,5.00
2022-08-03T15:18:42.764Z,4.80
2022-08-03T15:21:45.870Z,5.40
2022-08-03T15:24:07.471Z,4.90
2022-08-03T15:26:41.518Z,7.50
2022-08-03T15:30:07.283Z,5.30
2022-08-03T15:32:09.403Z,4.30
2022-08-03T15:34:41.911Z,4.60
2022-08-03T15:37:22.510Z,5.90
2022-08-03T15:39:59.659Z,4.80
2022-08-03T15:42:34.685Z,5.00
2022-08-03T15:45:07.713Z,5.20
2022-08-03T15:47:39.864Z,4.60
2022-08-03T15:50:12.829Z,5.30
2022-08-03T15:52:44.887Z,6.30
2022-08-03T15:55:18.262Z,6.50
2022-08-03T15:59:09.578Z,5.50
2022-08-03T16:00:44.778Z,4.80
2022-08-03T16:03:16.329Z,4.60
2022-08-03T16:05:48.388Z,6.40
2022-08-03T16:08:20.015Z,4.50
2022-08-03T16:10:52.235Z,6.00
2022-08-03T16:14:14.090Z,5.10
2022-08-03T16:16:17.023Z,5.30
2022-08-03T16:18:48.745Z,6.20
2022-08-03T16:21:21.750Z,5.00
2022-08-03T16:23:55.794Z,5.10
2022-08-03T16:26:29.519Z,4.60
2022-08-03T16:29:03.841Z,6.00
2022-08-03T16:31:55.055Z,4.60
2022-08-03T16:34:26.912Z,4.90
2022-08-03T16:36:58.781Z,4.40
2022-08-03T16:39:30.823Z,5.10
2022-08-03T16:42:03.628Z,4.40
2022-08-03T16:44:36.991Z,5.70
2022-08-03T16:47:09.011Z,5.00
2022-08-03T16:49:56.432Z,5.10
2022-08-03T16:52:30.209Z,4.80
2022-08-03T16:55:02.169Z,6.90
2022-08-03T16:57:58.981Z,5.30
2022-08-03T17:00:32.991Z,4.70
2022-08-03T17:03:12.384Z,4.70
2022-08-03T17:05:52.305Z,5.40
2022-08-03T17:08:26.692Z,5.30
2022-08-03T17:10:59.185Z,6.00
2022-08-03T17:13:39.347Z,5.00
2022-08-03T17:16:15.348Z,5.10
2022-08-03T17:18:53.637Z,4.90
2022-08-03T17:21:30.995Z,5.60
2022-08-03T17:24:12.328Z,5.20
2022-08-03T17:26:49.907Z,4.90
2022-08-03T17:29:25.296Z,5.30
2022-08-03T17:32:06.569Z,5.60
2022-08-03T17:34:44.658Z,8.30
2022-08-03T17:37:49.914Z,6.70
2022-08-03T17:40:12.114Z,5.90
2022-08-03T17:42:50.983Z,6.30
2022-08-03T17:45:23.394Z,6.20
2022-08-03T17:48:18.532Z,7.00
2022-08-03T17:50:57.071Z,6.90
2022-08-03T17:53:34.021Z,5.40
2022-08-03T17:56:40.791Z,6.70
2022-08-03T17:59:15.540Z,6.20
2022-08-03T18:02:26.465Z,6.00
2022-08-03T18:05:16.730Z,6.60
2022-08-03T18:08:01.572Z,7.10
2022-08-03T18:10:49.893Z,7.00
2022-08-03T18:13:25.781Z,6.10
2022-08-03T18:16:04.979Z,6.40
2022-08-03T18:18:41.019Z,8.80
2022-08-03T18:21:22.762Z,7.40
2022-08-03T18:23:56.565Z,8.50
2022-08-03T18:26:31.993Z,13.60
2022-08-03T18:29:05.282Z,13.60
2022-08-03T18:32:03.107Z,11.40
2022-08-03T18:34:53.146Z,10.90
2022-08-03T18:37:27.263Z,9.10
2022-08-03T18:40:01.843Z,15.80
2022-08-03T18:42:34.259Z,9.00
2022-08-03T18:45:14.795Z,9.10
2022-08-03T18:48:11.897Z,13.20
2022-08-03T18:50:49.853Z,12.50
2022-08-03T18:54:02.183Z,9.50
2022-08-03T18:56:28.752Z,10.30
2022-08-03T18:59:06.356Z,8.70
2022-08-03T19:01:59.622Z,8.70
2022-08-03T19:04:37.837Z,8.70
2022-08-03T19:07:14.237Z,8.30
2022-08-03T19:09:52.787Z,9.20
2022-08-03T19:12:31.109Z,9.90
2022-08-03T19:15:13.135Z,10.30
2022-08-03T19:17:50.318Z,10.70
2022-08-03T19:20:32.462Z,11.20
2022-08-03T19:23:04.495Z,12.30
2022-08-03T19:25:41.459Z,11.80
2022-08-03T19:28:13.956Z,11.90
2022-08-03T19:30:53.602Z,10.00
2022-08-03T19:33:29.796Z,12.20
2022-08-03T19:36:01.797Z,10.40
2022-08-03T19:38:35.835Z,11.30
2022-08-03T19:41:14.456Z,9.90
2022-08-03T19:43:57.781Z,9.40
2022-08-03T19:46:32.264Z,10.20
2022-08-03T19:49:14.489Z,11.80
2022-08-03T19:52:01.659Z,10.60
2022-08-03T19:54:52.970Z,10.20
2022-08-03T19:57:28.057Z,9.60
2022-08-03T20:00:03.501Z,10.50
2022-08-03T20:02:43.079Z,10.60
2022-08-03T20:05:15.829Z,12.80
2022-08-03T20:07:48.708Z,15.80
2022-08-03T20:10:21.844Z,16.00
2022-08-03T20:12:54.035Z,16.30
2022-08-03T20:15:31.691Z,22.90
2022-08-03T20:18:04.022Z,17.70
2022-08-03T20:20:43.290Z,19.50
2022-08-03T20:23:20.140Z,14.40
2022-08-03T20:25:59.461Z,13.20
2022-08-03T20:28:50.069Z,12.20
2022-08-03T20:31:32.632Z,8.80
2022-08-03T20:34:09.196Z,9.70
2022-08-03T20:36:41.807Z,12.00
2022-08-03T20:39:14.349Z,11.80
2022-08-03T20:41:46.030Z,8.80
2022-08-03T20:44:17.609Z,8.90
2022-08-03T20:46:53.178Z,9.80
2022-08-03T20:49:46.244Z,8.20
2022-08-03T20:52:18.431Z,10.20
2022-08-03T20:54:51.136Z,9.30
2022-08-03T20:57:23.623Z,10.90
2022-08-03T20:59:57.233Z,9.30
2022-08-03T21:02:31.054Z,9.50
2022-08-03T21:05:08.466Z,8.20
2022-08-03T21:08:05.409Z,9.90
2022-08-03T21:10:42.075Z,13.70
2022-08-03T21:16:02.644Z,9.20
2022-08-03T21:18:48.053Z,9.80
2022-08-03T21:21:22.435Z,9.00
2022-08-03T21:23:56.508Z,8.60
2022-08-03T21:26:29.153Z,10.90
2022-08-03T21:29:01.177Z,8.10
2022-08-03T21:31:32.744Z,7.70
2022-08-03T21:34:06.408Z,8.40
2022-08-03T21:36:39.381Z,12.00
2022-08-03T21:39:13.684Z,8.50
2022-08-03T21:44:17.861Z,9.70
2022-08-03T21:46:57.151Z,9.30
2022-08-03T21:50:02.717Z,8.10
2022-08-03T21:52:25.432Z,8.70
2022-08-03T21:55:01.948Z,9.00
2022-08-03T21:57:37.702Z,9.30
2022-08-03T22:00:15.463Z,8.90
2022-08-03T22:02:54.517Z,10.90
2022-08-03T22:05:44.037Z,9.50
2022-08-03T22:08:16.148Z,9.30
2022-08-03T22:10:49.375Z,8.80
2022-08-03T22:13:44.296Z,9.10
2022-08-03T22:16:15.172Z,9.90
2022-08-03T22:18:48.232Z,9.10
2022-08-03T22:21:27.953Z,11.00
2022-08-03T22:24:08.839Z,8.10
2022-08-03T22:27:04.410Z,8.40
2022-08-03T22:29:38.548Z,8.70
2022-08-03T22:32:11.032Z,8.90
2022-08-03T22:34:47.219Z,9.00
2022-08-03T22:37:21.020Z,8.50
2022-08-03T22:39:54.432Z,9.40
2022-08-03T22:42:28.174Z,8.80
2022-08-03T22:44:59.533Z,13.00
2022-08-03T22:47:33.860Z,9.10
2022-08-03T22:52:57.504Z,9.00
2022-08-03T22:55:30.852Z,9.20
2022-08-03T22:58:02.349Z,10.10
2022-08-03T23:00:33.958Z,11.90
2022-08-03T23:03:07.886Z,13.30
2022-08-03T23:06:00.362Z,11.20
2022-08-03T23:08:37.459Z,10.30
2022-08-03T23:11:11.565Z,10.30
2022-08-03T23:13:43.747Z,11.50
2022-08-03T23:16:17.009Z,9.50
2022-08-03T23:19:16.788Z,12.70
2022-08-03T23:22:02.500Z,11.90
2022-08-03T23:24:37.370Z,12.00
2022-08-03T23:27:10.024Z,12.70
2022-08-03T23:29:44.139Z,13.00
2022-08-03T23:32:16.694Z,12.50
2022-08-03T23:35:06.861Z,12.80
2022-08-03T23:38:10.762Z,13.20
2022-08-03T23:40:32.737Z,17.00
2022-08-03T23:43:05.115Z,13.60
2022-08-03T23:45:38.190Z,13.90
2022-08-03T23:48:10.324Z,14.20
2022-08-03T23:50:47.680Z,11.70
2022-08-03T23:53:23.594Z,12.20
2022-08-03T23:56:14.109Z,11.70
2022-08-03T23:58:56.169Z,12.60
